createdAt,value
2022-10-19T00:02:14.708Z,10.20
2022-10-19T00:04:41.096Z,7.75
2022-10-19T00:10:40.321Z,8.05
2022-10-19T00:13:06.794Z,7.22
2022-10-19T00:19:09.120Z,5.57
2022-10-19T00:21:35.995Z,5.13
2022-10-19T00:24:14.956Z,5.05
2022-10-19T00:26:42.225Z,4.95
2022-10-19T00:29:25.247Z,4.43
2022-10-19T00:31:52.116Z,5.10
2022-10-19T00:34:35.802Z,5.28
2022-10-19T00:37:02.200Z,5.80
2022-10-19T00:45:16.786Z,5.22
2022-10-19T00:47:44.584Z,4.80
2022-10-19T00:50:14.591Z,4.93
2022-10-19T00:52:41.602Z,5.70
2022-10-19T00:55:08.955Z,5.00
2022-10-19T00:57:35.857Z,5.72
2022-10-19T01:00:06.066Z,7.82
2022-10-19T01:02:32.688Z,5.30
2022-10-19T01:04:59.606Z,5.35
2022-10-19T01:07:26.818Z,5.20
2022-10-19T01:09:54.484Z,4.57
2022-10-19T01:12:55.741Z,4.25
2022-10-19T01:15:31.148Z,4.68
2022-10-19T01:18:05.043Z,4.63
2022-10-19T01:20:31.384Z,5.00
2022-10-19T01:23:19.153Z,4.88
2022-10-19T01:26:07.684Z,4.50
2022-10-19T01:28:51.335Z,4.70
2022-10-19T01:31:48.822Z,4.38
2022-10-19T01:34:48.112Z,6.25
2022-10-19T01:37:37.874Z,5.53
2022-10-19T01:40:19.975Z,5.75
2022-10-19T01:42:58.567Z,5.72
2022-10-19T01:45:35.104Z,4.47
2022-10-19T01:48:15.502Z,5.80
2022-10-19T01:51:01.614Z,6.22
2022-10-19T01:53:32.163Z,6.75
2022-10-19T01:56:02.787Z,5.97
2022-10-19T01:58:33.635Z,6.03
2022-10-19T02:01:04.734Z,5.43
2022-10-19T02:03:32.776Z,5.55
2022-10-19T02:06:04.937Z,5.40
2022-10-19T02:08:45.938Z,5.63
2022-10-19T02:11:12.485Z,5.38
2022-10-19T02:13:41.247Z,4.40
2022-10-19T02:16:16.448Z,3.88
2022-10-19T02:18:47.258Z,3.92
2022-10-19T02:23:40.494Z,4.00
2022-10-19T02:26:07.898Z,4.10
2022-10-19T02:28:35.167Z,4.50
2022-10-19T02:31:01.917Z,4.22
2022-10-19T02:33:29.500Z,4.18
2022-10-19T02:35:58.025Z,3.80
2022-10-19T02:38:25.499Z,3.80
2022-10-19T02:41:00.217Z,3.95
2022-10-19T02:43:28.954Z,4.05
2022-10-19T02:46:08.157Z,4.03
2022-10-19T02:48:42.018Z,4.03
2022-10-19T02:51:29.669Z,4.13
2022-10-19T02:53:57.385Z,4.00
2022-10-19T02:56:25.524Z,3.90
2022-10-19T02:58:52.199Z,4.00
2022-10-19T03:01:18.735Z,4.00
2022-10-19T03:03:45.342Z,4.18
2022-10-19T03:06:12.026Z,4.15
2022-10-19T03:08:38.697Z,4.40
2022-10-19T03:11:05.384Z,4.32
2022-10-19T03:13:31.894Z,4.28
2022-10-19T03:16:05.212Z,4.30
2022-10-19T03:18:31.779Z,3.40
2022-10-19T03:21:10.365Z,3.40
2022-10-19T03:23:37.770Z,4.30
2022-10-19T03:26:07.578Z,3.85
2022-10-19T03:28:36.634Z,4.05
2022-10-19T03:31:03.215Z,3.47
2022-10-19T03:33:29.687Z,3.75
2022-10-19T03:36:25.864Z,3.20
2022-10-19T03:39:03.878Z,3.22
2022-10-19T03:41:32.878Z,3.65
2022-10-19T03:46:26.773Z,3.35
2022-10-19T03:48:53.981Z,3.45
2022-10-19T03:51:26.001Z,3.47
2022-10-19T03:53:54.397Z,3.10
2022-10-19T03:56:22.922Z,3.17
2022-10-19T03:58:50.535Z,3.13
2022-10-19T04:01:20.519Z,2.90
2022-10-19T04:03:47.021Z,2.50
2022-10-19T04:06:18.312Z,2.85
2022-10-19T04:08:49.150Z,2.90
2022-10-19T04:11:18.363Z,2.67
2022-10-19T04:13:44.831Z,2.80
2022-10-19T04:16:14.013Z,2.90
2022-10-19T04:18:40.714Z,3.00
2022-10-19T04:21:07.826Z,2.92
2022-10-19T04:23:36.122Z,2.78
2022-10-19T04:26:06.229Z,3.13
2022-10-19T04:28:33.454Z,3.33
2022-10-19T04:31:05.554Z,2.92
2022-10-19T04:33:33.441Z,3.35
2022-10-19T04:36:05.556Z,3.10
2022-10-19T04:38:34.922Z,2.92
2022-10-19T04:41:10.400Z,3.13
2022-10-19T04:43:37.446Z,3.35
2022-10-19T04:46:24.445Z,3.45
2022-10-19T04:48:51.277Z,3.80
2022-10-19T04:51:18.497Z,3.60
2022-10-19T04:53:45.153Z,3.40
2022-10-19T04:56:15.031Z,3.90
2022-10-19T04:58:41.944Z,4.30
2022-10-19T05:01:11.394Z,3.70
2022-10-19T05:03:38.158Z,4.00
2022-10-19T05:06:05.504Z,5.60
2022-10-19T05:08:32.240Z,4.30
2022-10-19T05:11:07.524Z,4.22
2022-10-19T05:13:35.283Z,3.88
2022-10-19T05:16:04.070Z,4.50
2022-10-19T05:18:31.029Z,4.00
2022-10-19T05:21:09.653Z,4.22
2022-10-19T05:23:36.464Z,4.20
2022-10-19T05:26:17.617Z,4.53
2022-10-19T05:28:49.080Z,4.72
2022-10-19T05:31:18.983Z,4.78
2022-10-19T05:33:46.378Z,5.03
2022-10-19T05:36:18.547Z,5.50
2022-10-19T05:38:47.704Z,4.40
2022-10-19T05:41:15.504Z,4.40
2022-10-19T05:43:42.695Z,4.82
2022-10-19T05:46:11.847Z,5.30
2022-10-19T05:48:39.494Z,5.53
2022-10-19T05:51:08.623Z,6.05
2022-10-19T05:53:35.801Z,5.10
2022-10-19T05:56:05.828Z,5.70
2022-10-19T05:58:32.806Z,6.07
2022-10-19T06:01:00.701Z,6.63
2022-10-19T06:03:28.491Z,5.40
2022-10-19T06:05:55.908Z,6.60
2022-10-19T06:08:26.332Z,4.90
2022-10-19T06:10:52.946Z,5.18
2022-10-19T06:13:20.237Z,5.72
2022-10-19T06:15:50.672Z,4.85
2022-10-19T06:18:17.587Z,4.43
2022-10-19T06:20:44.372Z,4.40
2022-10-19T06:23:11.596Z,5.88
2022-10-19T06:25:38.226Z,5.70
2022-10-19T06:28:05.994Z,4.70
2022-10-19T06:30:32.762Z,5.03
2022-10-19T06:32:59.766Z,5.00
2022-10-19T06:35:26.420Z,5.40
2022-10-19T06:37:53.663Z,4.85
2022-10-19T06:40:20.275Z,5.60
2022-10-19T06:42:46.988Z,4.30
2022-10-19T06:45:13.482Z,16.45
2022-10-19T06:47:39.968Z,4.40
2022-10-19T06:50:07.576Z,4.63
2022-10-19T06:52:35.584Z,5.85
2022-10-19T06:55:02.753Z,5.75
2022-10-19T06:57:29.842Z,6.30
2022-10-19T06:59:56.441Z,5.95
2022-10-19T07:02:23.320Z,5.53
2022-10-19T07:04:50.578Z,3.72
2022-10-19T07:07:17.600Z,2.80
2022-10-19T07:09:44.245Z,2.40
2022-10-19T07:12:11.136Z,2.78
2022-10-19T07:14:39.893Z,2.33
2022-10-19T07:17:09.669Z,2.50
2022-10-19T07:19:36.759Z,2.20
2022-10-19T07:22:03.850Z,2.30
2022-10-19T07:24:30.720Z,3.35
2022-10-19T07:26:57.469Z,3.28
2022-10-19T07:29:27.094Z,2.60
2022-10-19T07:31:54.189Z,2.90
2022-10-19T07:34:28.926Z,3.30
2022-10-19T07:36:56.328Z,3.38
2022-10-19T07:39:23.436Z,3.08
2022-10-19T07:41:51.253Z,2.70
2022-10-19T07:44:18.554Z,3.53
2022-10-19T07:46:45.906Z,3.30
2022-10-19T07:49:19.246Z,3.10
2022-10-19T07:51:47.107Z,3.47
2022-10-19T07:54:14.017Z,4.22
2022-10-19T07:56:41.172Z,4.25
2022-10-19T07:59:08.432Z,3.88
2022-10-19T08:01:41.357Z,4.78
2022-10-19T08:06:55.677Z,5.38
2022-10-19T08:09:50.861Z,6.10
2022-10-19T08:12:14.897Z,6.35
2022-10-19T08:14:51.858Z,5.80
2022-10-19T08:17:21.455Z,5.63
2022-10-19T08:19:51.767Z,5.47
2022-10-19T08:22:18.376Z,4.78
2022-10-19T08:24:50.083Z,5.90
2022-10-19T08:27:17.186Z,4.72
2022-10-19T08:29:44.100Z,4.70
2022-10-19T08:32:16.761Z,5.07
2022-10-19T08:34:46.840Z,4.30
2022-10-19T08:37:26.321Z,4.43
2022-10-19T08:40:17.711Z,4.63
2022-10-19T08:42:53.759Z,4.80
2022-10-19T08:48:26.032Z,7.78
2022-10-19T08:50:54.446Z,5.32
2022-10-19T08:53:32.412Z,4.70
2022-10-19T08:56:49.475Z,4.43
2022-10-19T08:59:38.767Z,4.13
2022-10-19T09:02:20.372Z,5.38
2022-10-19T09:05:16.273Z,5.55
2022-10-19T09:07:45.821Z,4.10
2022-10-19T09:10:15.771Z,4.57
2022-10-19T09:12:49.388Z,4.90
2022-10-19T09:15:25.511Z,4.57
2022-10-19T09:17:52.147Z,4.40
2022-10-19T09:20:23.366Z,4.38
2022-10-19T09:23:02.219Z,5.15
2022-10-19T09:25:31.171Z,4.85
2022-10-19T09:28:13.836Z,4.93
2022-10-19T09:30:43.493Z,5.05
2022-10-19T09:33:19.272Z,5.25
2022-10-19T09:35:47.571Z,5.47
2022-10-19T09:38:17.088Z,6.60
2022-10-19T09:40:44.164Z,5.30
2022-10-19T09:43:21.703Z,4.97
2022-10-19T09:46:29.403Z,5.50
2022-10-19T09:48:59.099Z,5.70
2022-10-19T09:51:25.873Z,9.75
2022-10-19T09:53:57.096Z,5.90
2022-10-19T09:56:30.066Z,5.70
2022-10-19T09:58:59.956Z,5.75
2022-10-19T10:01:43.493Z,5.85
2022-10-19T10:04:18.954Z,6.20
2022-10-19T10:06:48.725Z,6.70
2022-10-19T10:09:22.862Z,5.95
2022-10-19T10:11:51.771Z,6.00
2022-10-19T10:14:38.714Z,10.85
2022-10-19T10:17:13.811Z,5.93
2022-10-19T10:19:51.854Z,6.55
2022-10-19T10:22:27.780Z,7.00
2022-10-19T10:24:59.393Z,6.07
2022-10-19T10:27:32.963Z,6.55
2022-10-19T10:30:05.151Z,6.53
2022-10-19T10:32:32.736Z,6.68
2022-10-19T10:35:17.279Z,6.25
2022-10-19T10:37:46.262Z,6.75
2022-10-19T10:40:32.094Z,7.05
2022-10-19T10:43:05.430Z,6.68
2022-10-19T10:45:37.161Z,6.43
2022-10-19T10:48:30.538Z,6.60
2022-10-19T10:50:59.915Z,6.88
2022-10-19T10:53:35.685Z,6.85
2022-10-19T10:56:04.591Z,6.43
2022-10-19T10:58:39.633Z,6.50
2022-10-19T11:01:16.144Z,6.88
2022-10-19T11:03:50.937Z,7.22
2022-10-19T11:06:20.125Z,7.28
2022-10-19T11:09:11.689Z,7.10
2022-10-19T11:11:43.366Z,7.60
2022-10-19T11:14:33.593Z,7.30
2022-10-19T11:17:06.623Z,7.43
2022-10-19T11:19:44.981Z,6.72
2022-10-19T11:22:34.870Z,7.85
2022-10-19T11:25:19.910Z,7.50
2022-10-19T11:27:52.853Z,7.13
2022-10-19T11:30:25.635Z,7.28
2022-10-19T11:33:06.310Z,7.25
2022-10-19T11:35:53.291Z,7.82
2022-10-19T11:38:31.207Z,7.22
2022-10-19T11:41:23.108Z,7.07
2022-10-19T11:44:26.966Z,6.95
2022-10-19T11:47:19.732Z,7.57
2022-10-19T11:52:49.639Z,7.13
2022-10-19T11:55:16.199Z,7.00
2022-10-19T11:57:56.621Z,7.20
2022-10-19T12:00:39.814Z,6.68
2022-10-19T12:03:18.967Z,6.88
2022-10-19T12:06:09.388Z,7.05
2022-10-19T12:09:00.723Z,6.68
2022-10-19T12:11:51.232Z,6.95
2022-10-19T12:14:23.533Z,7.60
2022-10-19T12:17:00.833Z,8.15
2022-10-19T12:19:38.601Z,7.05
2022-10-19T12:22:13.542Z,7.30
2022-10-19T12:24:40.218Z,6.97
2022-10-19T12:27:10.426Z,7.22
2022-10-19T12:29:42.195Z,6.82
2022-10-19T12:32:14.190Z,7.20
2022-10-19T12:37:59.936Z,6.38
2022-10-19T12:40:39.362Z,5.85
2022-10-19T12:43:28.011Z,6.47
2022-10-19T12:46:08.040Z,6.15
2022-10-19T12:48:36.401Z,6.55
2022-10-19T12:51:05.796Z,6.72
2022-10-19T12:53:36.436Z,5.57
2022-10-19T12:56:05.092Z,6.25
2022-10-19T12:58:41.559Z,5.10
2022-10-19T13:01:21.017Z,6.15
2022-10-19T13:03:50.719Z,6.00
2022-10-19T13:06:23.287Z,6.50
2022-10-19T13:08:52.963Z,6.35
2022-10-19T13:11:20.294Z,5.22
2022-10-19T13:14:00.250Z,6.13
2022-10-19T13:16:29.882Z,6.20
2022-10-19T13:18:59.396Z,5.80
2022-10-19T13:21:47.746Z,5.38
2022-10-19T13:24:30.176Z,6.07
2022-10-19T13:27:02.758Z,5.63
2022-10-19T13:29:41.380Z,5.65
2022-10-19T13:32:36.585Z,5.57
2022-10-19T13:35:26.653Z,5.90
2022-10-19T13:38:15.017Z,5.28
2022-10-19T13:40:55.911Z,5.60
2022-10-19T13:43:29.039Z,5.05
2022-10-19T13:46:07.628Z,4.95
2022-10-19T13:48:46.715Z,6.32
2022-10-19T13:51:40.805Z,5.40
2022-10-19T13:54:32.193Z,5.07
2022-10-19T13:57:23.280Z,5.07
2022-10-19T14:00:27.209Z,5.57
2022-10-19T14:03:01.349Z,4.60
2022-10-19T14:08:21.568Z,4.20
2022-10-19T14:11:01.070Z,4.45
2022-10-19T14:13:29.257Z,5.05
2022-10-19T14:15:58.821Z,4.82
2022-10-19T14:18:35.767Z,4.15
2022-10-19T14:21:09.948Z,4.50
2022-10-19T14:23:41.159Z,4.57
2022-10-19T14:26:17.193Z,4.65
2022-10-19T14:28:43.872Z,4.10
2022-10-19T14:31:18.195Z,4.25
2022-10-19T14:33:52.063Z,3.95
2022-10-19T14:36:20.990Z,4.40
2022-10-19T14:38:50.380Z,4.03
2022-10-19T14:41:39.449Z,5.85
2022-10-19T14:44:46.182Z,4.72
2022-10-19T14:47:24.210Z,4.28
2022-10-19T14:49:51.151Z,7.85
2022-10-19T14:57:31.174Z,4.43
2022-10-19T15:00:03.915Z,4.20
2022-10-19T15:02:37.468Z,4.30
2022-10-19T15:05:06.619Z,3.97
2022-10-19T15:07:42.023Z,4.80
2022-10-19T15:10:16.219Z,4.10
2022-10-19T15:12:43.906Z,4.65
2022-10-19T15:15:16.619Z,4.78
2022-10-19T15:18:30.189Z,4.65
2022-10-19T15:21:12.097Z,5.22
2022-10-19T15:23:48.054Z,4.70
2022-10-19T15:26:26.840Z,4.90
2022-10-19T15:29:20.734Z,4.10
2022-10-19T15:31:48.054Z,4.75
2022-10-19T15:34:25.431Z,4.80
2022-10-19T15:37:00.359Z,6.05
2022-10-19T15:39:42.094Z,4.60
2022-10-19T15:42:36.523Z,4.82
2022-10-19T15:45:24.668Z,4.85
2022-10-19T15:48:25.889Z,6.03
2022-10-19T15:50:53.297Z,5.22
2022-10-19T15:53:20.796Z,4.95
2022-10-19T15:55:47.664Z,5.30
2022-10-19T15:58:14.510Z,5.65
2022-10-19T16:00:41.928Z,5.13
2022-10-19T16:03:09.236Z,5.40
2022-10-19T16:05:39.004Z,7.32
2022-10-19T16:08:11.701Z,5.30
2022-10-19T16:10:39.871Z,6.65
2022-10-19T16:13:06.617Z,5.75
2022-10-19T16:15:33.514Z,6.63
2022-10-19T16:18:00.960Z,5.35
2022-10-19T16:20:29.575Z,5.90
2022-10-19T16:22:56.966Z,6.28
2022-10-19T16:25:23.614Z,6.28
2022-10-19T16:27:50.248Z,5.97
2022-10-19T16:30:19.985Z,6.50
2022-10-19T16:32:49.836Z,6.80
2022-10-19T16:35:16.768Z,6.03
2022-10-19T16:37:43.449Z,5.80
2022-10-19T16:40:10.924Z,7.00
2022-10-19T16:42:37.917Z,6.20
2022-10-19T16:45:04.976Z,6.18
2022-10-19T16:47:31.503Z,6.63
2022-10-19T16:50:02.922Z,6.60
2022-10-19T16:52:31.779Z,6.20
2022-10-19T16:54:59.762Z,7.32
2022-10-19T16:57:26.441Z,6.40
2022-10-19T17:02:23.951Z,6.82
2022-10-19T17:04:50.866Z,10.35
2022-10-19T17:07:18.201Z,8.43
2022-10-19T17:09:45.075Z,10.35
2022-10-19T17:12:12.270Z,9.07
2022-10-19T17:14:43.282Z,5.90
2022-10-19T17:17:11.332Z,6.03
2022-10-19T17:19:38.258Z,6.55
2022-10-19T17:22:05.676Z,7.82
2022-10-19T17:24:32.417Z,5.88
2022-10-19T17:27:02.177Z,5.70
2022-10-19T17:29:29.044Z,5.78
2022-10-19T17:31:55.829Z,5.50
2022-10-19T17:34:22.921Z,6.30
2022-10-19T17:36:49.966Z,6.10
2022-10-19T17:39:24.341Z,5.97
2022-10-19T17:41:54.501Z,7.18
2022-10-19T17:44:22.321Z,6.65
2022-10-19T17:46:49.038Z,6.63
2022-10-19T17:49:17.507Z,6.03
2022-10-19T17:51:44.027Z,6.70
2022-10-19T17:54:13.093Z,6.72
2022-10-19T17:56:40.781Z,6.32
2022-10-19T17:59:09.029Z,5.93
2022-10-19T18:01:37.463Z,7.70
2022-10-19T18:04:05.506Z,8.10
2022-10-19T18:06:35.055Z,7.10
2022-10-19T18:09:04.057Z,7.35
2022-10-19T18:11:45.035Z,7.18
2022-10-19T18:14:13.957Z,7.28
2022-10-19T18:16:47.277Z,7.72
2022-10-19T18:19:16.681Z,7.57
2022-10-19T18:21:45.541Z,7.93
2022-10-19T18:24:20.445Z,8.00
2022-10-19T18:26:49.090Z,7.68
2022-10-19T18:29:19.167Z,7.50
2022-10-19T18:31:51.408Z,8.43
2022-10-19T18:34:21.397Z,8.70
2022-10-19T18:36:48.434Z,7.45
2022-10-19T18:39:15.289Z,7.75
2022-10-19T18:41:41.942Z,7.70
2022-10-19T18:44:11.385Z,6.70
2022-10-19T18:46:38.588Z,7.60
2022-10-19T18:49:08.165Z,7.10
2022-10-19T18:51:35.590Z,10.15
2022-10-19T18:54:08.669Z,16.60
2022-10-19T18:56:36.627Z,13.07
2022-10-19T18:59:05.162Z,12.43
2022-10-19T19:01:31.903Z,9.85
2022-10-19T19:04:06.536Z,14.48
2022-10-19T19:06:35.738Z,12.35
2022-10-19T19:09:06.204Z,9.13
2022-10-19T19:11:36.897Z,9.48
2022-10-19T19:14:12.274Z,9.05
2022-10-19T19:16:41.197Z,10.55
2022-10-19T19:22:00.314Z,10.30
2022-10-19T19:24:32.823Z,9.05
2022-10-19T19:26:59.849Z,8.80
2022-10-19T19:29:39.907Z,9.30
2022-10-19T19:32:09.760Z,9.40
2022-10-19T19:37:33.170Z,9.93
2022-10-19T19:45:22.730Z,10.85
2022-10-19T19:47:52.533Z,13.57
2022-10-19T19:53:32.424Z,10.35
2022-10-19T19:55:59.463Z,11.05
2022-10-19T19:58:28.560Z,11.35
2022-10-19T20:00:55.717Z,10.82
2022-10-19T20:03:22.349Z,10.77
2022-10-19T20:05:49.086Z,12.57
2022-10-19T20:08:15.728Z,10.40
2022-10-19T20:10:43.320Z,10.45
2022-10-19T20:13:10.583Z,10.68
2022-10-19T20:15:38.819Z,10.88
2022-10-19T20:18:06.886Z,8.85
2022-10-19T20:20:33.602Z,10.43
2022-10-19T20:23:00.242Z,11.00
2022-10-19T20:25:27.405Z,10.20
2022-10-19T20:27:54.071Z,9.70
2022-10-19T20:30:22.038Z,11.95
2022-10-19T20:32:49.485Z,8.32
2022-10-19T20:35:16.347Z,9.68
2022-10-19T20:37:42.978Z,9.57
2022-10-19T20:40:10.324Z,9.25
2022-10-19T20:42:37.889Z,9.95
2022-10-19T20:45:05.115Z,9.07
2022-10-19T20:47:31.592Z,7.93
2022-10-19T20:49:58.160Z,7.78
2022-10-19T20:52:24.763Z,10.13
2022-10-19T20:54:51.316Z,8.20
2022-10-19T20:57:17.930Z,10.55
2022-10-19T20:59:45.769Z,8.02
2022-10-19T21:02:12.378Z,7.82
2022-10-19T21:04:39.063Z,8.73
2022-10-19T21:07:05.704Z,9.45
2022-10-19T21:09:32.389Z,7.97
2022-10-19T21:11:59.659Z,8.80
2022-10-19T21:14:28.810Z,8.13
2022-10-19T21:16:59.537Z,8.35
2022-10-19T21:19:28.710Z,8.05
2022-10-19T21:22:03.637Z,8.00
2022-10-19T21:24:32.810Z,7.93
2022-10-19T21:27:05.672Z,8.30
2022-10-19T21:29:32.850Z,7.47
2022-10-19T21:32:04.858Z,8.00
2022-10-19T21:34:32.394Z,7.47
2022-10-19T21:37:00.173Z,7.43
2022-10-19T21:39:26.900Z,6.60
2022-10-19T21:41:53.551Z,12.98
2022-10-19T21:44:22.954Z,7.15
2022-10-19T21:46:49.741Z,6.93
2022-10-19T21:49:17.390Z,7.00
2022-10-19T21:51:53.588Z,6.82
2022-10-19T21:54:24.957Z,7.13
2022-10-19T21:56:52.039Z,7.05
2022-10-19T21:59:18.709Z,6.70
2022-10-19T22:01:45.325Z,6.57
2022-10-19T22:04:17.184Z,6.65
2022-10-19T22:06:43.861Z,6.30
2022-10-19T22:09:14.459Z,6.80
2022-10-19T22:11:41.105Z,6.63
2022-10-19T22:14:08.034Z,6.70
2022-10-19T22:16:36.988Z,6.72
2022-10-19T22:19:05.505Z,6.15
2022-10-19T22:21:33.505Z,6.90
2022-10-19T22:24:12.728Z,6.70
2022-10-19T22:26:50.673Z,6.65
2022-10-19T22:29:17.501Z,6.72
2022-10-19T22:31:44.423Z,6.78
2022-10-19T22:34:14.815Z,6.57
2022-10-19T22:36:41.696Z,6.70
2022-10-19T22:39:08.316Z,7.18
2022-10-19T22:41:34.773Z,6.80
2022-10-19T22:44:01.347Z,6.65
2022-10-19T22:46:27.934Z,7.00
2022-10-19T22:48:54.405Z,6.93
2022-10-19T22:51:21.011Z,7.05
2022-10-19T22:53:47.549Z,6.05
2022-10-19T22:56:14.148Z,6.72
2022-10-19T22:58:40.900Z,6.72
2022-10-19T23:01:10.524Z,6.05
2022-10-19T23:03:40.524Z,6.50
2022-10-19T23:06:12.898Z,6.57
2022-10-19T23:08:39.748Z,6.05
2022-10-19T23:11:06.289Z,6.25
2022-10-19T23:13:33.216Z,6.35
2022-10-19T23:15:59.724Z,6.38
2022-10-19T23:18:26.483Z,6.43
2022-10-19T23:20:56.534Z,6.28
2022-10-19T23:23:23.421Z,6.40
2022-10-19T23:26:05.381Z,6.85
2022-10-19T23:28:33.827Z,6.05
2022-10-19T23:31:15.234Z,5.85
2022-10-19T23:33:42.953Z,7.15
2022-10-19T23:36:14.291Z,6.97
2022-10-19T23:38:43.276Z,7.75
2022-10-19T23:41:10.343Z,6.45
2022-10-19T23:46:03.334Z,6.35
2022-10-19T23:48:29.985Z,6.25
2022-10-19T23:51:05.026Z,6.07
2022-10-19T23:53:35.725Z,6.10
2022-10-19T23:56:10.061Z,5.80
2022-10-19T23:58:36.652Z,6.15
